Terminal Aerodrome Forecast
Issued by NWS Blacksburg, VA

Current Version | Previous Version | Text Only | Print | Product List | Glossary Off
Versions: 1 2 3 4 5 6 7 8 9 10 11 12 13 14 15 16 17 18 19 20 21 22 23 24 25 26 27 28 29 30 31 32 33 34 35 36 37 38 39 40

000
FTUS41 KRNK 261140
TAFBLF
TAF
KBLF 261140Z 2612/2712 VRB04KT 1 1/2SM -SHRA BR VV002
     FM261500 32007KT 4SM -SHRA BR OVC005
     FM261800 32008KT P6SM OVC012
     FM270000 31007KT P6SM OVC015
     FM270800 31008KT 4SM BR BKN004 OVC012=

USA.gov is the U.S. government's official web portal to all federal, state and local government web resources and services.